Time;durP1;ratioP1;P1;durP2;ratioP2;P2;SDS_P1;SDS_P2;PMS_P1;PMS_P2;Temp;Humidity;BMP_temperature;BMP_pressure;BME280_temperature;BME280_humidity;BME280_pressure;Samples;Min_cycle;Max_cycle;Signal;HPM_P1;HPM_P2
2021/07/04 00:00:15;;;;;;;10.18;7.65;;;;;;;;;;5028808;28;20049;-47
2021/07/04 00:02:42;;;;;;;10.07;8.85;;;;;;;;;;5020513;28;20042;-46
2021/07/04 00:05:11;;;;;;;10.30;8.30;;;;;;;;;;5027411;28;20048;-44
2021/07/04 00:07:42;;;;;;;11.82;8.93;;;;;;;;;;5011987;28;20077;-45
2021/07/04 00:10:10;;;;;;;9.95;8.30;;;;;;;;;;5015756;28;20037;-46
2021/07/04 00:12:37;;;;;;;11.10;9.45;;;;;;;;;;5012521;28;20125;-45
2021/07/04 00:15:06;;;;;;;10.95;8.52;;;;;;;;;;5031198;28;20041;-42
2021/07/04 00:17:34;;;;;;;10.35;8.45;;;;;;;;;;5020351;28;20393;-42
2021/07/04 00:20:01;;;;;;;10.07;8.35;;;;;;;;;;5027430;28;20586;-43
2021/07/04 00:22:28;;;;;;;11.30;9.65;;;;;;;;;;5029298;28;20042;-42
2021/07/04 00:24:55;;;;;;;11.35;8.23;;;;;;;;;;5027038;28;20137;-44
2021/07/04 00:27:21;;;;;;;11.20;8.77;;;;;;;;;;5032103;28;20133;-43
2021/07/04 00:29:50;;;;;;;9.45;8.40;;;;;;;;;;5018751;28;20046;-41
2021/07/04 00:32:18;;;;;;;9.70;8.25;;;;;;;;;;5028059;28;20052;-41
2021/07/04 00:34:57;;;;;;;10.20;8.27;;;;;;;;;;5027058;28;20107;-43
2021/07/04 00:37:24;;;;;;;11.43;8.45;;;;;;;;;;5026894;28;20560;-41
2021/07/04 00:40:07;;;;;;;10.07;8.23;;;;;;;;;;5027660;28;20038;-41
2021/07/04 00:42:34;;;;;;;8.90;7.93;;;;;;;;;;5016076;28;20130;-43
2021/07/04 00:45:01;;;;;;;9.32;8.23;;;;;;;;;;5028169;28;20045;-43
2021/07/04 00:47:28;;;;;;;9.23;7.90;;;;;;;;;;5027742;28;20069;-45
2021/07/04 00:49:55;;;;;;;9.82;8.00;;;;;;;;;;5013674;28;20554;-42
2021/07/04 00:52:23;;;;;;;10.70;7.45;;;;;;;;;;5010649;28;20042;-44
2021/07/04 00:54:50;;;;;;;7.38;6.22;;;;;;;;;;5011706;28;20172;-43
2021/07/04 00:57:17;;;;;;;7.95;6.93;;;;;;;;;;5031072;28;20044;-43
2021/07/04 00:59:44;;;;;;;7.85;6.93;;;;;;;;;;5023720;28;20034;-44
2021/07/04 01:02:10;;;;;;;8.57;7.25;;;;;;;;;;5012030;28;20147;-45
2021/07/04 01:04:38;;;;;;;7.75;6.78;;;;;;;;;;5023082;28;20136;-42
2021/07/04 01:07:06;;;;;;;8.32;7.05;;;;;;;;;;5030520;28;20045;-41
2021/07/04 01:09:33;;;;;;;8.07;6.45;;;;;;;;;;5023807;28;20044;-44
2021/07/04 01:12:00;;;;;;;9.13;7.47;;;;;;;;;;5028647;28;20212;-41
2021/07/04 01:14:27;;;;;;;9.02;7.25;;;;;;;;;;5029701;28;20041;-44
2021/07/04 01:16:58;;;;;;;10.88;7.88;;;;;;;;;;5031142;28;20033;-41
2021/07/04 01:19:26;;;;;;;9.13;7.68;;;;;;;;;;5025927;28;20116;-42
2021/07/04 01:21:56;;;;;;;9.07;6.90;;;;;;;;;;5030163;28;20491;-42
2021/07/04 01:24:24;;;;;;;8.88;7.13;;;;;;;;;;5028107;28;20498;-42
2021/07/04 01:26:52;;;;;;;8.80;6.80;;;;;;;;;;5021117;28;20049;-41
2021/07/04 01:29:20;;;;;;;9.43;6.53;;;;;;;;;;5012862;28;20046;-41
2021/07/04 01:31:49;;;;;;;7.97;6.80;;;;;;;;;;5021417;28;20095;-41
2021/07/04 01:34:17;;;;;;;9.48;6.82;;;;;;;;;;5023913;28;20402;-42
2021/07/04 01:36:43;;;;;;;6.18;5.53;;;;;;;;;;5023191;28;20048;-41
2021/07/04 01:39:13;;;;;;;7.30;6.55;;;;;;;;;;5021341;28;20051;-42
2021/07/04 01:41:44;;;;;;;7.93;6.65;;;;;;;;;;5029823;28;20456;-41
2021/07/04 01:44:18;;;;;;;9.20;6.85;;;;;;;;;;5015922;28;20088;-41
2021/07/04 01:46:45;;;;;;;9.70;7.18;;;;;;;;;;5019914;28;20057;-45
2021/07/04 01:49:12;;;;;;;7.60;6.80;;;;;;;;;;5023792;28;20076;-41
2021/07/04 01:51:41;;;;;;;8.88;7.63;;;;;;;;;;5029263;28;20125;-42
2021/07/04 01:54:14;;;;;;;8.35;6.40;;;;;;;;;;5028682;28;20091;-44
2021/07/04 01:56:42;;;;;;;7.65;6.85;;;;;;;;;;5022693;28;20111;-41
2021/07/04 01:59:09;;;;;;;7.35;6.53;;;;;;;;;;5029976;28;20041;-42
2021/07/04 02:01:53;;;;;;;8.98;7.25;;;;;;;;;;5030295;28;20041;-42
2021/07/04 02:04:21;;;;;;;7.22;6.43;;;;;;;;;;5030116;28;20057;-41
2021/07/04 02:07:04;;;;;;;9.27;7.28;;;;;;;;;;5040600;28;20037;-44
2021/07/04 02:09:32;;;;;;;8.85;7.75;;;;;;;;;;5031496;28;20132;-43
2021/07/04 02:11:59;;;;;;;9.90;7.68;;;;;;;;;;5014390;28;20042;-41
2021/07/04 02:14:36;;;;;;;10.05;8.15;;;;;;;;;;5025436;28;20185;-41
2021/07/04 02:17:11;;;;;;;8.07;7.13;;;;;;;;;;5009462;28;20052;-44
2021/07/04 02:20:12;;;;;;;7.97;7.20;;;;;;;;;;5027061;28;20068;-45
2021/07/04 02:23:10;;;;;;;9.10;7.25;;;;;;;;;;5011600;28;20042;-45
2021/07/04 02:25:57;;;;;;;8.30;7.38;;;;;;;;;;5027468;28;20400;-45
2021/07/04 02:28:28;;;;;;;9.00;7.53;;;;;;;;;;5028373;28;20038;-45
2021/07/04 02:30:57;;;;;;;9.15;7.95;;;;;;;;;;5031209;28;20078;-44
2021/07/04 02:33:25;;;;;;;8.43;7.40;;;;;;;;;;5023182;28;20392;-44
2021/07/04 02:35:54;;;;;;;10.02;7.78;;;;;;;;;;5028579;28;20376;-44
2021/07/04 02:38:21;;;;;;;8.10;6.68;;;;;;;;;;5033839;28;20042;-45
2021/07/04 02:40:52;;;;;;;8.10;7.30;;;;;;;;;;5016294;28;20053;-44
2021/07/04 02:43:23;;;;;;;9.85;7.82;;;;;;;;;;5029512;28;20127;-45
2021/07/04 02:45:53;;;;;;;9.60;7.50;;;;;;;;;;5016613;28;20158;-46
2021/07/04 02:48:21;;;;;;;8.43;7.63;;;;;;;;;;5032815;28;20064;-47
2021/07/04 02:50:51;;;;;;;8.35;7.18;;;;;;;;;;5030931;28;20113;-46
2021/07/04 02:53:23;;;;;;;8.75;7.00;;;;;;;;;;5014181;28;20034;-48
2021/07/04 02:55:53;;;;;;;8.52;6.75;;;;;;;;;;5031647;28;20111;-47
2021/07/04 02:58:24;;;;;;;8.18;7.38;;;;;;;;;;5031636;28;20047;-44
2021/07/04 03:00:51;;;;;;;8.32;7.20;;;;;;;;;;5032195;28;20128;-45
2021/07/04 03:03:20;;;;;;;8.00;7.18;;;;;;;;;;5028282;28;20053;-45
2021/07/04 03:05:49;;;;;;;7.78;6.97;;;;;;;;;;5014583;28;20050;-48
2021/07/04 03:08:17;;;;;;;8.43;7.22;;;;;;;;;;5033540;28;20045;-46
2021/07/04 03:10:44;;;;;;;7.53;6.82;;;;;;;;;;5031514;28;20084;-44
2021/07/04 03:13:14;;;;;;;8.43;7.35;;;;;;;;;;5032366;28;20033;-47
2021/07/04 03:15:41;;;;;;;8.63;7.78;;;;;;;;;;5033018;28;20056;-46
2021/07/04 03:18:09;;;;;;;8.90;7.28;;;;;;;;;;5031821;28;20049;-43
2021/07/04 03:20:39;;;;;;;10.20;8.05;;;;;;;;;;5028095;28;20067;-44
2021/07/04 03:23:09;;;;;;;7.95;7.15;;;;;;;;;;5024612;28;20172;-43
2021/07/04 03:25:36;;;;;;;10.57;7.85;;;;;;;;;;5013898;28;20145;-45
2021/07/04 03:28:05;;;;;;;9.15;7.80;;;;;;;;;;5023332;28;20038;-44
2021/07/04 03:30:35;;;;;;;8.40;6.95;;;;;;;;;;5016876;28;20574;-47
2021/07/04 03:33:03;;;;;;;8.75;7.20;;;;;;;;;;5012492;28;20631;-46
2021/07/04 03:35:32;;;;;;;8.10;6.97;;;;;;;;;;5029229;28;20553;-45
2021/07/04 03:38:04;;;;;;;8.23;7.43;;;;;;;;;;5028756;28;20360;-45
2021/07/04 03:40:31;;;;;;;10.98;7.93;;;;;;;;;;5013687;28;20404;-45
2021/07/04 03:43:07;;;;;;;9.00;8.10;;;;;;;;;;5029769;28;20069;-45
2021/07/04 03:45:37;;;;;;;8.00;7.20;;;;;;;;;;5016776;28;20053;-45
2021/07/04 03:48:07;;;;;;;9.23;7.93;;;;;;;;;;5012172;28;20049;-46
2021/07/04 03:50:46;;;;;;;9.23;8.32;;;;;;;;;;5030734;28;20069;-45
2021/07/04 03:53:13;;;;;;;9.60;8.38;;;;;;;;;;5023426;28;20515;-44
2021/07/04 03:55:42;;;;;;;10.73;8.05;;;;;;;;;;5034066;28;20160;-45
2021/07/04 03:58:09;;;;;;;8.57;7.60;;;;;;;;;;5031713;28;20045;-48
2021/07/04 04:00:38;;;;;;;8.23;7.35;;;;;;;;;;5014900;28;20041;-47
2021/07/04 04:03:13;;;;;;;8.55;7.35;;;;;;;;;;5027843;28;20128;-46
2021/07/04 04:06:00;;;;;;;7.68;6.88;;;;;;;;;;5032626;28;20064;-47
2021/07/04 04:08:32;;;;;;;9.05;7.55;;;;;;;;;;5018680;28;20038;-45
2021/07/04 04:10:59;;;;;;;8.23;7.25;;;;;;;;;;5017921;28;20046;-47
2021/07/04 04:13:28;;;;;;;9.18;7.68;;;;;;;;;;5030971;28;20080;-45
2021/07/04 04:16:09;;;;;;;8.60;7.70;;;;;;;;;;5034551;28;20026;-46
2021/07/04 04:18:38;;;;;;;8.55;6.85;;;;;;;;;;5013821;28;20044;-45
2021/07/04 04:21:09;;;;;;;8.45;7.57;;;;;;;;;;5017533;28;20061;-46
2021/07/04 04:23:37;;;;;;;9.88;7.97;;;;;;;;;;5020298;28;20056;-43
2021/07/04 04:26:07;;;;;;;10.02;7.80;;;;;;;;;;5032291;28;20117;-45
2021/07/04 04:28:35;;;;;;;8.35;7.32;;;;;;;;;;5030894;28;20038;-46
2021/07/04 04:31:02;;;;;;;10.10;8.57;;;;;;;;;;5032363;28;20116;-46
2021/07/04 04:33:30;;;;;;;8.40;7.47;;;;;;;;;;5019998;28;20403;-45
2021/07/04 04:35:59;;;;;;;9.30;7.40;;;;;;;;;;5015812;28;20038;-47
2021/07/04 04:38:26;;;;;;;8.63;7.70;;;;;;;;;;5031316;28;20120;-48
2021/07/04 04:40:53;;;;;;;9.10;8.20;;;;;;;;;;5030418;28;20106;-46
2021/07/04 04:43:19;;;;;;;7.93;7.13;;;;;;;;;;5015178;28;20104;-43
2021/07/04 04:45:46;;;;;;;7.53;6.65;;;;;;;;;;5022778;28;20440;-45
2021/07/04 04:48:13;;;;;;;10.18;7.80;;;;;;;;;;5031431;28;20041;-45
2021/07/04 04:50:43;;;;;;;9.48;7.93;;;;;;;;;;5028408;28;20060;-45
2021/07/04 04:53:10;;;;;;;8.20;6.75;;;;;;;;;;5022741;28;20604;-49
2021/07/04 04:55:36;;;;;;;9.68;7.35;;;;;;;;;;5020023;28;20410;-46
2021/07/04 04:58:03;;;;;;;8.27;7.07;;;;;;;;;;5031896;28;20143;-45
2021/07/04 05:00:30;;;;;;;7.45;6.28;;;;;;;;;;5029551;28;20037;-45
2021/07/04 05:03:03;;;;;;;8.70;7.28;;;;;;;;;;5011827;28;20085;-46
2021/07/04 05:05:30;;;;;;;9.80;7.28;;;;;;;;;;5012987;28;20495;-48
2021/07/04 05:07:56;;;;;;;9.32;7.60;;;;;;;;;;5014966;28;20052;-43
2021/07/04 05:10:23;;;;;;;9.35;7.22;;;;;;;;;;5032611;28;20041;-43
2021/07/04 05:12:51;;;;;;;8.75;7.85;;;;;;;;;;5031839;28;20096;-44
2021/07/04 05:15:18;;;;;;;9.27;7.88;;;;;;;;;;5031386;28;20046;-46
2021/07/04 05:17:44;;;;;;;10.38;8.02;;;;;;;;;;5031673;28;20045;-44
2021/07/04 05:20:14;;;;;;;9.18;7.88;;;;;;;;;;5019601;28;20124;-47
2021/07/04 05:22:41;;;;;;;9.10;8.20;;;;;;;;;;5026479;28;20506;-45
2021/07/04 05:25:09;;;;;;;9.23;8.32;;;;;;;;;;5028007;28;20138;-45
2021/07/04 05:27:38;;;;;;;9.75;8.75;;;;;;;;;;5030322;28;20041;-47
2021/07/04 05:30:06;;;;;;;9.18;7.43;;;;;;;;;;5015457;28;20083;-45
2021/07/04 05:32:33;;;;;;;9.48;7.60;;;;;;;;;;5011212;28;20050;-45
2021/07/04 05:34:59;;;;;;;10.60;8.13;;;;;;;;;;5012091;28;20133;-46
2021/07/04 05:37:26;;;;;;;8.55;7.32;;;;;;;;;;5031044;28;20041;-45
2021/07/04 05:39:54;;;;;;;8.98;7.13;;;;;;;;;;5016801;28;20060;-43
2021/07/04 05:42:21;;;;;;;8.07;7.00;;;;;;;;;;5020879;28;20128;-45
2021/07/04 05:44:48;;;;;;;8.82;7.90;;;;;;;;;;5023871;28;20538;-43
2021/07/04 05:47:14;;;;;;;8.38;7.45;;;;;;;;;;5028432;28;20117;-44
2021/07/04 05:49:41;;;;;;;8.32;7.35;;;;;;;;;;5023298;28;20076;-47
2021/07/04 05:52:08;;;;;;;7.88;7.07;;;;;;;;;;5029076;28;20132;-44
2021/07/04 05:54:36;;;;;;;8.45;7.50;;;;;;;;;;5011890;28;20104;-44
2021/07/04 05:57:05;;;;;;;7.82;7.03;;;;;;;;;;5027653;28;20472;-46
2021/07/04 05:59:33;;;;;;;7.57;6.78;;;;;;;;;;5030722;28;20509;-44
2021/07/04 06:02:00;;;;;;;8.77;6.45;;;;;;;;;;5020720;28;20048;-44
2021/07/04 06:04:28;;;;;;;8.90;6.30;;;;;;;;;;5017889;28;20048;-44
2021/07/04 06:06:55;;;;;;;6.57;5.32;;;;;;;;;;5035380;28;20069;-42
2021/07/04 06:09:21;;;;;;;6.22;5.50;;;;;;;;;;5034343;28;20045;-46
2021/07/04 06:11:49;;;;;;;6.50;4.90;;;;;;;;;;5014760;28;20124;-44
2021/07/04 06:14:16;;;;;;;7.07;5.07;;;;;;;;;;5015322;28;20042;-45
2021/07/04 06:16:43;;;;;;;5.57;4.93;;;;;;;;;;5033317;28;20503;-43
2021/07/04 06:19:10;;;;;;;6.13;5.22;;;;;;;;;;5027606;28;20038;-46
2021/07/04 06:21:36;;;;;;;6.13;5.40;;;;;;;;;;5034352;28;20409;-48
2021/07/04 06:24:03;;;;;;;7.07;5.70;;;;;;;;;;5019854;28;20478;-46
2021/07/04 06:26:30;;;;;;;6.60;5.70;;;;;;;;;;5033691;28;20051;-46
2021/07/04 06:28:57;;;;;;;6.95;6.10;;;;;;;;;;5033637;28;20052;-47
2021/07/04 06:31:24;;;;;;;6.65;5.95;;;;;;;;;;5033311;28;20045;-47
2021/07/04 06:33:56;;;;;;;6.85;5.85;;;;;;;;;;5026406;28;20100;-48
2021/07/04 06:36:24;;;;;;;7.47;6.13;;;;;;;;;;5025040;28;20080;-46
2021/07/04 06:38:51;;;;;;;6.53;5.82;;;;;;;;;;5023637;28;20080;-45
2021/07/04 06:41:17;;;;;;;6.97;5.68;;;;;;;;;;5028787;28;20045;-48
2021/07/04 06:43:44;;;;;;;6.97;5.60;;;;;;;;;;5022289;28;20041;-46
2021/07/04 06:46:14;;;;;;;7.05;5.40;;;;;;;;;;5031964;28;20510;-44
2021/07/04 06:48:41;;;;;;;7.05;6.10;;;;;;;;;;5033437;28;20053;-46
2021/07/04 06:51:08;;;;;;;8.00;6.00;;;;;;;;;;5022514;28;20050;-44
2021/07/04 06:53:35;;;;;;;10.75;7.25;;;;;;;;;;5013511;28;20042;-45
2021/07/04 06:56:03;;;;;;;7.13;6.13;;;;;;;;;;5023933;28;20087;-44
2021/07/04 06:58:30;;;;;;;7.10;6.05;;;;;;;;;;5034585;28;20128;-45
2021/07/04 07:00:57;;;;;;;6.60;5.90;;;;;;;;;;5024607;28;20068;-43
2021/07/04 07:03:23;;;;;;;6.43;5.60;;;;;;;;;;5014240;28;20495;-46
2021/07/04 07:05:50;;;;;;;6.13;5.53;;;;;;;;;;5027117;28;20095;-47
2021/07/04 07:08:17;;;;;;;6.35;5.32;;;;;;;;;;5034249;28;20583;-44
2021/07/04 07:10:44;;;;;;;6.50;5.25;;;;;;;;;;5026946;28;20136;-46
2021/07/04 07:13:10;;;;;;;7.35;5.22;;;;;;;;;;5033754;28;20041;-47
2021/07/04 07:15:42;;;;;;;7.85;5.18;;;;;;;;;;5028653;28;20057;-46
2021/07/04 07:18:09;;;;;;;6.55;5.00;;;;;;;;;;5014403;28;20173;-45
2021/07/04 07:20:37;;;;;;;5.78;5.18;;;;;;;;;;5015705;28;20407;-47
2021/07/04 07:23:05;;;;;;;5.72;5.13;;;;;;;;;;5021921;28;20038;-47
2021/07/04 07:25:39;;;;;;;5.95;4.82;;;;;;;;;;5027363;28;20546;-46
2021/07/04 07:28:06;;;;;;;7.03;4.93;;;;;;;;;;5032774;28;20069;-46
2021/07/04 07:30:39;;;;;;;;;;;;;;;;;;5026769;28;20038;-46
2021/07/04 07:33:07;;;;;;;6.10;5.10;;;;;;;;;;5016079;28;19929;-47
2021/07/04 07:35:34;;;;;;;5.90;5.30;;;;;;;;;;5022340;28;20084;-46
2021/07/04 07:38:03;;;;;;;6.10;5.28;;;;;;;;;;5014000;28;20045;-45
2021/07/04 07:40:30;;;;;;;5.30;4.80;;;;;;;;;;5014712;28;20132;-45
2021/07/04 07:42:57;;;;;;;6.05;4.88;;;;;;;;;;5013667;28;20042;-47
2021/07/04 07:45:24;;;;;;;6.30;5.10;;;;;;;;;;5023099;28;20045;-44
2021/07/04 07:47:57;;;;;;;5.55;4.68;;;;;;;;;;5016698;28;20042;-47
2021/07/04 07:50:35;;;;;;;6.18;5.03;;;;;;;;;;5015297;28;20049;-46
2021/07/04 07:53:04;;;;;;;5.93;5.10;;;;;;;;;;5026816;28;20045;-45
2021/07/04 07:55:32;;;;;;;6.07;5.05;;;;;;;;;;5033281;28;20038;-46
2021/07/04 07:57:58;;;;;;;7.38;4.80;;;;;;;;;;5030393;28;20037;-45
2021/07/04 08:00:25;;;;;;;5.25;4.68;;;;;;;;;;5032110;28;20077;-46
2021/07/04 08:02:52;;;;;;;7.32;5.05;;;;;;;;;;5024511;28;20037;-48
2021/07/04 08:05:21;;;;;;;5.88;4.80;;;;;;;;;;5031997;28;20045;-50
2021/07/04 08:07:49;;;;;;;5.75;4.68;;;;;;;;;;5031088;28;20076;-44
2021/07/04 08:10:19;;;;;;;4.88;4.22;;;;;;;;;;5031846;28;20067;-45
2021/07/04 08:12:46;;;;;;;7.28;3.88;;;;;;;;;;5039577;28;20463;-46
2021/07/04 08:15:13;;;;;;;4.85;4.10;;;;;;;;;;5032696;28;20124;-42
2021/07/04 08:17:43;;;;;;;5.82;4.80;;;;;;;;;;5030652;28;20057;-47
2021/07/04 08:20:11;;;;;;;5.07;4.32;;;;;;;;;;5025673;28;20566;-46
2021/07/04 08:22:38;;;;;;;5.13;4.20;;;;;;;;;;5028778;28;20124;-43
2021/07/04 08:25:05;;;;;;;4.40;3.85;;;;;;;;;;5013579;28;20066;-44
2021/07/04 08:27:32;;;;;;;5.55;4.07;;;;;;;;;;5027329;28;20055;-43
2021/07/04 08:29:59;;;;;;;4.63;3.80;;;;;;;;;;5031239;28;20124;-44
2021/07/04 08:32:26;;;;;;;7.10;4.28;;;;;;;;;;5028209;28;20047;-46
2021/07/04 08:34:52;;;;;;;4.70;3.95;;;;;;;;;;5029159;28;20048;-43
2021/07/04 08:37:30;;;;;;;4.85;4.18;;;;;;;;;;5031450;28;20057;-45
2021/07/04 08:39:57;;;;;;;4.40;3.70;;;;;;;;;;5031527;28;20131;-42
2021/07/04 08:42:24;;;;;;;6.93;3.38;;;;;;;;;;5023700;28;20103;-47
2021/07/04 08:44:52;;;;;;;4.78;3.65;;;;;;;;;;5030387;28;20041;-43
2021/07/04 08:47:20;;;;;;;3.70;3.08;;;;;;;;;;5029583;28;20135;-44
2021/07/04 08:49:48;;;;;;;5.82;3.85;;;;;;;;;;5034355;28;20053;-43
2021/07/04 08:52:15;;;;;;;4.55;3.63;;;;;;;;;;5024454;28;20049;-47
2021/07/04 08:54:42;;;;;;;3.17;2.67;;;;;;;;;;5020021;28;20050;-43
2021/07/04 08:57:10;;;;;;;3.92;2.85;;;;;;;;;;5031536;28;20045;-43
2021/07/04 08:59:37;;;;;;;2.72;2.20;;;;;;;;;;5029232;28;20481;-49
2021/07/04 09:02:05;;;;;;;3.30;2.35;;;;;;;;;;5030368;28;20053;-49
2021/07/04 09:04:31;;;;;;;3.28;1.95;;;;;;;;;;5012210;28;20050;-44
2021/07/04 09:07:00;;;;;;;2.60;1.90;;;;;;;;;;5015527;28;20094;-47
2021/07/04 09:09:28;;;;;;;3.58;2.60;;;;;;;;;;5027504;28;20491;-46
2021/07/04 09:12:04;;;;;;;3.40;2.60;;;;;;;;;;5018969;28;20618;-50
2021/07/04 09:14:33;;;;;;;3.47;2.17;;;;;;;;;;5027960;28;20099;-48
2021/07/04 09:17:16;;;;;;;4.35;2.80;;;;;;;;;;5031194;28;20403;-47
2021/07/04 09:19:56;;;;;;;3.38;2.35;;;;;;;;;;5031683;28;20030;-48
2021/07/04 09:22:27;;;;;;;3.55;2.50;;;;;;;;;;5026800;28;20159;-46
2021/07/04 09:25:04;;;;;;;4.00;2.00;;;;;;;;;;5026243;28;20053;-47
2021/07/04 09:27:31;;;;;;;5.57;2.40;;;;;;;;;;5010830;28;20100;-47
2021/07/04 09:29:58;;;;;;;2.92;2.25;;;;;;;;;;5011408;28;20061;-47
2021/07/04 09:32:26;;;;;;;3.95;1.95;;;;;;;;;;5019758;28;20589;-45
2021/07/04 09:35:05;;;;;;;2.58;1.73;;;;;;;;;;5017156;28;20046;-46
2021/07/04 09:37:35;;;;;;;3.28;2.05;;;;;;;;;;5027050;28;20439;-46
2021/07/04 09:40:11;;;;;;;4.38;1.90;;;;;;;;;;5035322;28;20048;-45
2021/07/04 09:42:53;;;;;;;2.58;1.60;;;;;;;;;;5039162;28;20556;-45
2021/07/04 09:45:20;;;;;;;2.50;2.00;;;;;;;;;;5018114;28;20140;-49
2021/07/04 09:47:57;;;;;;;3.00;2.20;;;;;;;;;;5026122;28;20440;-46
2021/07/04 09:50:25;;;;;;;2.88;2.00;;;;;;;;;;5024247;28;20088;-47
2021/07/04 09:52:55;;;;;;;3.08;2.20;;;;;;;;;;5012537;28;20096;-46
2021/07/04 09:55:22;;;;;;;3.30;1.95;;;;;;;;;;5021594;28;20045;-48
2021/07/04 09:57:59;;;;;;;3.38;2.05;;;;;;;;;;5021154;28;20143;-47
2021/07/04 10:00:27;;;;;;;4.63;2.45;;;;;;;;;;5026945;28;20151;-48
2021/07/04 10:03:10;;;;;;;2.97;2.20;;;;;;;;;;5025117;28;20049;-47
2021/07/04 10:05:45;;;;;;;2.47;2.08;;;;;;;;;;5030251;28;20041;-48
2021/07/04 10:08:17;;;;;;;4.20;2.08;;;;;;;;;;5015260;28;20077;-47
2021/07/04 10:10:44;;;;;;;2.95;2.10;;;;;;;;;;5020458;28;20045;-46
2021/07/04 10:13:11;;;;;;;2.63;1.83;;;;;;;;;;5014038;28;20129;-46
2021/07/04 10:15:41;;;;;;;2.47;1.98;;;;;;;;;;5021805;28;20197;-48
2021/07/04 10:18:09;;;;;;;2.15;1.80;;;;;;;;;;5029337;28;20044;-46
2021/07/04 10:20:37;;;;;;;6.07;3.00;;;;;;;;;;5025573;28;20068;-48
2021/07/04 10:23:08;;;;;;;4.72;2.53;;;;;;;;;;5019364;28;20037;-49
2021/07/04 10:25:35;;;;;;;4.00;2.67;;;;;;;;;;5019276;28;20467;-47
2021/07/04 10:28:03;;;;;;;3.20;2.30;;;;;;;;;;5028347;28;20111;-47
2021/07/04 10:30:30;;;;;;;3.35;2.17;;;;;;;;;;5027116;28;20043;-50
2021/07/04 10:33:15;;;;;;;3.30;2.42;;;;;;;;;;5013872;28;20133;-47
2021/07/04 10:36:01;;;;;;;3.20;2.30;;;;;;;;;;5022798;28;20492;-49
2021/07/04 10:38:51;;;;;;;5.32;2.35;;;;;;;;;;5027026;28;20136;-46
2021/07/04 10:41:21;;;;;;;3.08;2.25;;;;;;;;;;5020272;28;20052;-49
2021/07/04 10:43:47;;;;;;;2.85;2.22;;;;;;;;;;5024793;28;20132;-47
2021/07/04 10:46:14;;;;;;;4.22;2.28;;;;;;;;;;5043958;28;20637;-50
2021/07/04 10:48:54;;;;;;;2.83;2.03;;;;;;;;;;5035376;28;20050;-48
2021/07/04 10:51:22;;;;;;;3.65;2.05;;;;;;;;;;5025823;28;20048;-47
2021/07/04 10:53:55;;;;;;;2.90;2.30;;;;;;;;;;5023752;28;20407;-46
2021/07/04 10:56:34;;;;;;;8.20;2.63;;;;;;;;;;5018255;28;20077;-49
2021/07/04 10:59:12;;;;;;;3.17;1.92;;;;;;;;;;5019063;28;20071;-50
2021/07/04 11:01:52;;;;;;;3.05;2.28;;;;;;;;;;5032084;23;21086;-47
2021/07/04 11:04:28;;;;;;;3.75;2.10;;;;;;;;;;5007669;28;20053;-47
2021/07/04 11:06:57;;;;;;;3.40;2.28;;;;;;;;;;5014594;28;20096;-44
2021/07/04 11:09:24;;;;;;;3.67;2.17;;;;;;;;;;5008984;28;20045;-47
2021/07/04 11:12:11;;;;;;;2.90;2.20;;;;;;;;;;5011707;28;20180;-43
2021/07/04 11:14:37;;;;;;;3.28;2.10;;;;;;;;;;5006730;28;20038;-50
2021/07/04 11:17:04;;;;;;;2.80;1.92;;;;;;;;;;5011432;28;20073;-45
2021/07/04 11:19:31;;;;;;;3.10;2.30;;;;;;;;;;4994267;28;20042;-44
2021/07/04 11:21:58;;;;;;;2.30;1.95;;;;;;;;;;4992939;28;20121;-47
2021/07/04 11:24:27;;;;;;;2.67;2.13;;;;;;;;;;5011108;28;20084;-47
2021/07/04 11:27:12;;;;;;;3.30;2.20;;;;;;;;;;5006597;28;20057;-43
2021/07/04 11:29:59;;;;;;;3.20;2.13;;;;;;;;;;5010253;28;20069;-45
2021/07/04 11:32:26;;;;;;;4.95;2.50;;;;;;;;;;5007207;28;20816;-45
2021/07/04 11:34:52;;;;;;;3.33;2.20;;;;;;;;;;5005380;28;20054;-50
2021/07/04 11:37:19;;;;;;;3.55;2.33;;;;;;;;;;4990522;28;20035;-45
2021/07/04 11:40:04;;;;;;;3.83;2.40;;;;;;;;;;4999838;28;20047;-45
2021/07/04 11:42:31;;;;;;;4.50;2.70;;;;;;;;;;5001662;28;20120;-44
2021/07/04 11:44:58;;;;;;;3.53;2.08;;;;;;;;;;5013183;28;21404;-50
2021/07/04 11:47:25;;;;;;;2.97;2.20;;;;;;;;;;5007976;28;20057;-51
2021/07/04 11:49:51;;;;;;;4.03;2.40;;;;;;;;;;4996138;28;20069;-50
2021/07/04 11:52:19;;;;;;;3.95;2.38;;;;;;;;;;5003084;28;20038;-50
2021/07/04 11:54:46;;;;;;;3.15;2.08;;;;;;;;;;5016332;28;20048;-51
2021/07/04 11:57:30;;;;;;;3.28;2.08;;;;;;;;;;4998593;28;20044;-50
2021/07/04 12:00:00;;;;;;;3.60;2.60;;;;;;;;;;5016534;28;20050;-50
2021/07/04 12:02:27;;;;;;;5.53;2.90;;;;;;;;;;5009538;28;20426;-49
2021/07/04 12:04:55;;;;;;;4.15;2.58;;;;;;;;;;4997191;28;20064;-52
2021/07/04 12:07:22;;;;;;;3.25;2.40;;;;;;;;;;5005235;28;20046;-51
2021/07/04 12:09:50;;;;;;;3.63;2.50;;;;;;;;;;5014651;28;20096;-50
2021/07/04 12:12:19;;;;;;;3.42;2.05;;;;;;;;;;5013943;28;20053;-47
2021/07/04 12:14:47;;;;;;;3.42;2.60;;;;;;;;;;4984753;28;20524;-46
2021/07/04 12:17:16;;;;;;;3.30;2.60;;;;;;;;;;5005659;28;20034;-49
2021/07/04 12:19:43;;;;;;;3.30;2.70;;;;;;;;;;5008746;28;20105;-44
2021/07/04 12:22:12;;;;;;;3.22;2.38;;;;;;;;;;5005986;28;20118;-44
2021/07/04 12:24:41;;;;;;;3.08;2.63;;;;;;;;;;4994111;28;20053;-50
2021/07/04 12:27:08;;;;;;;6.45;2.60;;;;;;;;;;4996597;28;20551;-46
2021/07/04 12:30:01;;;;;;;4.20;2.67;;;;;;;;;;5006408;28;20092;-43
2021/07/04 12:32:29;;;;;;;3.55;2.50;;;;;;;;;;4999509;28;20582;-43
2021/07/04 12:34:56;;;;;;;4.82;2.47;;;;;;;;;;4993982;28;20571;-46
2021/07/04 12:37:24;;;;;;;3.40;2.70;;;;;;;;;;4984764;28;20049;-46
2021/07/04 12:40:04;;;;;;;3.58;2.50;;;;;;;;;;4994469;28;20085;-49
2021/07/04 12:42:30;;;;;;;4.45;2.55;;;;;;;;;;5003820;28;20101;-49
2021/07/04 12:45:00;;;;;;;3.78;2.72;;;;;;;;;;5006335;28;20054;-49
2021/07/04 12:47:27;;;;;;;4.30;3.15;;;;;;;;;;5010713;28;20045;-49
2021/07/04 12:50:01;;;;;;;5.13;3.03;;;;;;;;;;4998813;28;20042;-47
2021/07/04 12:52:28;;;;;;;2.67;2.30;;;;;;;;;;5002259;28;20479;-46
2021/07/04 12:54:59;;;;;;;3.38;2.85;;;;;;;;;;5003355;28;20116;-45
2021/07/04 12:57:36;;;;;;;3.72;2.90;;;;;;;;;;5012519;28;20065;-48
2021/07/04 13:00:10;;;;;;;4.93;2.63;;;;;;;;;;5013321;28;20426;-48
2021/07/04 13:02:41;;;;;;;4.15;2.67;;;;;;;;;;5025297;28;20038;-46
2021/07/04 13:05:08;;;;;;;3.47;2.60;;;;;;;;;;5010113;28;20137;-49
2021/07/04 13:07:53;;;;;;;3.50;2.50;;;;;;;;;;5000400;28;20050;-47
2021/07/04 13:10:34;;;;;;;3.70;2.45;;;;;;;;;;5011031;28;20100;-48
2021/07/04 13:13:07;;;;;;;3.33;2.60;;;;;;;;;;5005050;28;20054;-46
2021/07/04 13:15:34;;;;;;;3.92;2.95;;;;;;;;;;5011743;28;20062;-45
2021/07/04 13:18:01;;;;;;;3.30;2.70;;;;;;;;;;5011669;28;20034;-41
2021/07/04 13:20:28;;;;;;;4.53;2.50;;;;;;;;;;5012061;28;20044;-47
2021/07/04 13:22:57;;;;;;;4.18;2.72;;;;;;;;;;4999705;28;20047;-46
2021/07/04 13:25:28;;;;;;;3.10;2.40;;;;;;;;;;5007688;28;20072;-46
2021/07/04 13:27:58;;;;;;;3.58;2.42;;;;;;;;;;5012018;28;20052;-45
2021/07/04 13:30:25;;;;;;;3.95;2.70;;;;;;;;;;5010533;28;20418;-47
2021/07/04 13:33:02;;;;;;;3.00;2.70;;;;;;;;;;5009098;28;20042;-51
2021/07/04 13:35:37;;;;;;;3.95;2.47;;;;;;;;;;5006485;28;20452;-45
2021/07/04 13:38:13;;;;;;;3.25;2.67;;;;;;;;;;5006344;28;20149;-42
2021/07/04 13:40:41;;;;;;;3.80;2.53;;;;;;;;;;4999395;28;20038;-44
2021/07/04 13:43:08;;;;;;;3.33;2.53;;;;;;;;;;4993190;28;20592;-47
2021/07/04 13:45:37;;;;;;;3.10;2.50;;;;;;;;;;4999839;28;20042;-48
2021/07/04 13:48:05;;;;;;;4.47;2.80;;;;;;;;;;5003777;28;20045;-45
2021/07/04 13:50:32;;;;;;;3.47;2.42;;;;;;;;;;5002533;28;20064;-46
2021/07/04 13:52:59;;;;;;;3.42;2.60;;;;;;;;;;5005841;28;20042;-47
2021/07/04 13:55:26;;;;;;;3.35;2.63;;;;;;;;;;5008661;28;20074;-46
2021/07/04 13:57:53;;;;;;;4.88;2.83;;;;;;;;;;5005407;28;20046;-45
2021/07/04 14:00:20;;;;;;;5.25;2.80;;;;;;;;;;5004318;28;20125;-46
2021/07/04 14:02:47;;;;;;;3.63;2.25;;;;;;;;;;5001684;28;20077;-47
2021/07/04 14:05:14;;;;;;;4.63;2.90;;;;;;;;;;5004828;28;20488;-47
2021/07/04 14:07:41;;;;;;;5.18;2.50;;;;;;;;;;5002525;28;20084;-47
2021/07/04 14:10:09;;;;;;;4.35;2.90;;;;;;;;;;5003265;28;20078;-52
2021/07/04 14:12:36;;;;;;;3.20;2.35;;;;;;;;;;4993501;28;20113;-49
2021/07/04 14:15:03;;;;;;;2.97;2.55;;;;;;;;;;4999733;28;20042;-52
2021/07/04 14:17:30;;;;;;;3.55;2.63;;;;;;;;;;5019162;28;20112;-50
2021/07/04 14:20:00;;;;;;;3.70;2.90;;;;;;;;;;5002188;28;20561;-50
2021/07/04 14:22:27;;;;;;;2.80;2.42;;;;;;;;;;5009878;28;20046;-47
2021/07/04 14:24:55;;;;;;;4.30;2.80;;;;;;;;;;5023816;28;20046;-47
2021/07/04 14:27:22;;;;;;;3.72;2.80;;;;;;;;;;5034366;28;20045;-47
2021/07/04 14:29:49;;;;;;;4.28;2.80;;;;;;;;;;5017184;28;20465;-47
2021/07/04 14:32:16;;;;;;;3.13;2.42;;;;;;;;;;4985172;28;20046;-44
2021/07/04 14:34:43;;;;;;;3.90;2.65;;;;;;;;;;5014669;28;20175;-52
2021/07/04 14:37:10;;;;;;;3.05;2.47;;;;;;;;;;5014576;28;20045;-45
2021/07/04 14:39:37;;;;;;;3.78;2.33;;;;;;;;;;5006790;28;20066;-49
2021/07/04 14:42:04;;;;;;;5.45;3.10;;;;;;;;;;4994927;28;20121;-43
2021/07/04 14:44:31;;;;;;;3.90;2.80;;;;;;;;;;4995405;28;20038;-50
2021/07/04 14:46:58;;;;;;;3.28;2.60;;;;;;;;;;4995465;28;20046;-44
2021/07/04 14:49:25;;;;;;;3.38;2.38;;;;;;;;;;5001873;28;20065;-44
2021/07/04 14:51:55;;;;;;;3.75;2.78;;;;;;;;;;4994517;28;20134;-43
2021/07/04 14:54:24;;;;;;;4.30;2.90;;;;;;;;;;4995632;28;20038;-49
2021/07/04 14:56:51;;;;;;;3.15;2.63;;;;;;;;;;4994907;28;20133;-43